createdAt,value
2018-02-02T00:01:03.434Z,61.21
2018-02-02T00:02:12.404Z,61.11
2018-02-02T00:03:21.375Z,61.02
2018-02-02T00:04:30.140Z,61.37
2018-02-02T00:05:39.186Z,60.63
2018-02-02T00:06:48.242Z,60.63
2018-02-02T00:07:56.976Z,60.63
2018-02-02T00:09:05.946Z,60.82
2018-02-02T00:10:15.182Z,60.63
2018-02-02T00:11:23.886Z,61.11
2018-02-02T00:12:32.858Z,61.11
2018-02-02T00:13:41.837Z,61.21
2018-02-02T00:14:50.537Z,61.3
2018-02-02T00:16:00.041Z,61.11
2018-02-02T00:17:08.747Z,61.37
2018-02-02T00:18:17.450Z,61.4
2018-02-02T00:19:26.418Z,61.3
2018-02-02T00:20:35.387Z,61.4
2018-02-02T00:21:44.357Z,61.49
2018-02-02T00:22:53.326Z,61.21
2018-02-02T00:24:02.295Z,61.3
2018-02-02T00:25:10.996Z,60.7
2018-02-02T00:26:19.697Z,60.6
2018-02-02T00:27:28.405Z,61.27
2018-02-02T00:28:37.914Z,61.3
2018-02-02T00:29:47.420Z,61.3
2018-02-02T00:30:56.126Z,61.37
2018-02-02T00:32:05.100Z,61.27
2018-02-02T00:33:14.873Z,61.21
2018-02-02T00:34:24.111Z,61.37
2018-02-02T00:35:33.345Z,61.18
2018-02-02T00:36:42.584Z,61.08
2018-02-02T00:37:51.288Z,60.89
2018-02-02T00:39:00.259Z,60.7
2018-02-02T00:40:09.499Z,61.08
2018-02-02T00:41:18.471Z,60.7
2018-02-02T00:42:27.708Z,60.7
2018-02-02T00:43:36.414Z,60.6
2018-02-02T00:44:45.657Z,60.7
2018-02-02T00:45:54.894Z,60.6
2018-02-02T00:47:04.145Z,60.6
2018-02-02T00:48:13.119Z,60.5
2018-02-02T00:49:22.089Z,60.79
2018-02-02T00:50:31.063Z,60.79
2018-02-02T00:51:39.769Z,60.6
2018-02-02T00:52:48.740Z,61.4
2018-02-02T00:53:57.980Z,60.89
2018-02-02T00:55:07.219Z,61.46
2018-02-02T00:56:15.922Z,60.79
2018-02-02T00:57:24.624Z,60.89
2018-02-02T00:58:33.864Z,60.79
2018-02-02T00:59:43.100Z,60.99
2018-02-02T01:00:51.808Z,60.79
2018-02-02T01:02:01.400Z,60.89
2018-02-02T01:03:10.074Z,60.79
2018-02-02T01:04:19.044Z,60.89
2018-02-02T01:05:27.748Z,60.7
2018-02-02T01:06:36.722Z,60.89
2018-02-02T01:07:45.954Z,60.79
2018-02-02T01:08:54.661Z,60.89
2018-02-02T01:10:03.645Z,61.08
2018-02-02T01:11:12.617Z,61.08
2018-02-02T01:12:21.320Z,60.99
2018-02-02T01:13:30.027Z,60.99
2018-02-02T01:14:39.263Z,60.99
2018-02-02T01:15:48.774Z,60.89
2018-02-02T01:16:58.276Z,61.18
2018-02-02T01:18:07.251Z,61.18
2018-02-02T01:19:15.955Z,61.37
2018-02-02T01:20:24.920Z,61.27
2018-02-02T01:21:33.891Z,61.27
2018-02-02T01:22:42.864Z,61.08
2018-02-02T01:23:51.839Z,61.27
2018-02-02T01:25:01.079Z,61.08
2018-02-02T01:26:09.784Z,61.27
2018-02-02T01:27:18.752Z,61.08
2018-02-02T01:28:27.453Z,61.08
2018-02-02T01:29:36.694Z,60.99
2018-02-02T01:30:45.397Z,60.99
2018-02-02T01:31:54.103Z,60.99
2018-02-02T01:33:03.339Z,61.18
2018-02-02T01:34:12.043Z,60.89
2018-02-02T01:35:20.747Z,60.79
2018-02-02T01:36:29.720Z,60.89
2018-02-02T01:37:38.955Z,60.99
2018-02-02T01:38:47.932Z,61.08
2018-02-02T01:39:56.902Z,60.99
2018-02-02T01:41:05.606Z,60.79
2018-02-02T01:42:14.314Z,60.99
2018-02-02T01:43:23.285Z,60.79
2018-02-02T01:44:32.263Z,60.99
2018-02-02T01:45:41.238Z,60.99
2018-02-02T01:46:50.207Z,60.89
2018-02-02T01:47:59.442Z,60.7
2018-02-02T01:49:08.412Z,60.99
2018-02-02T01:50:17.392Z,60.22
2018-02-02T01:51:26.095Z,60.7
2018-02-02T01:52:34.798Z,60.5
2018-02-02T01:53:43.502Z,60.5
2018-02-02T01:54:52.748Z,60.6
2018-02-02T01:56:01.719Z,60.5
2018-02-02T01:57:10.687Z,60.22
2018-02-02T01:58:19.660Z,60.31
2018-02-02T01:59:29.162Z,60.6
2018-02-02T02:00:37.868Z,60.31
2018-02-02T02:01:46.569Z,60.22
2018-02-02T02:02:55.542Z,60.31
2018-02-02T02:04:04.515Z,60.31
2018-02-02T02:05:13.751Z,60.5
2018-02-02T02:06:22.718Z,60.5
2018-02-02T02:07:31.424Z,60.31
2018-02-02T02:08:40.924Z,60.31
2018-02-02T02:09:50.425Z,60.6
2018-02-02T02:10:59.396Z,60.5
2018-02-02T02:12:08.377Z,60.31
2018-02-02T02:13:17.083Z,60.31
2018-02-02T02:14:26.060Z,60.79
2018-02-02T02:15:34.763Z,60.7
2018-02-02T02:16:44.002Z,60.7
2018-02-02T02:17:53.508Z,60.41
2018-02-02T02:19:02.482Z,60.41
2018-02-02T02:20:11.450Z,60.89
2018-02-02T02:21:20.155Z,60.41
2018-02-02T02:22:29.125Z,60.7
2018-02-02T02:23:37.833Z,60.6
2018-02-02T02:24:47.072Z,60.41
2018-02-02T02:25:56.576Z,60.6
2018-02-02T02:27:05.281Z,60.6
2018-02-02T02:28:14.252Z,60.6
2018-02-02T02:29:23.226Z,60.5
2018-02-02T02:30:32.265Z,60.6
2018-02-02T02:31:41.240Z,60.6
2018-02-02T02:32:50.212Z,60.79
2018-02-02T02:33:58.916Z,60.79
2018-02-02T02:35:07.887Z,60.89
2018-02-02T02:36:16.863Z,60.89
2018-02-02T02:37:26.367Z,60.89
2018-02-02T02:38:35.071Z,60.79
2018-02-02T02:39:44.315Z,60.6
2018-02-02T02:40:53.287Z,60.79
2018-02-02T02:42:02.264Z,60.79
2018-02-02T02:43:11.502Z,60.79
2018-02-02T02:44:20.209Z,60.7
2018-02-02T02:45:29.718Z,60.7
2018-02-02T02:46:38.422Z,60.79
2018-02-02T02:47:47.124Z,60.7
2018-02-02T02:48:55.827Z,60.79
2018-02-02T02:50:04.528Z,61.08
2018-02-02T02:51:14.039Z,60.99
2018-02-02T02:52:23.009Z,60.99
2018-02-02T02:53:31.982Z,60.89
2018-02-02T02:54:41.226Z,60.99
2018-02-02T02:55:50.732Z,60.99
2018-02-02T02:56:59.978Z,60.99
2018-02-02T02:58:09.488Z,60.89
2018-02-02T02:59:18.461Z,60.99
2018-02-02T03:00:27.439Z,60.99
2018-02-02T03:01:36.676Z,60.99
2018-02-02T03:02:45.648Z,60.89
2018-02-02T03:03:54.886Z,60.89
2018-02-02T03:05:03.853Z,60.89
2018-02-02T03:06:13.346Z,60.31
2018-02-02T03:07:22.043Z,60.99
2018-02-02T03:08:31.275Z,60.99
2018-02-02T03:09:39.967Z,60.7
2018-02-02T03:10:49.195Z,60.31
2018-02-02T03:11:58.155Z,60.12
2018-02-02T03:13:07.378Z,60.5
2018-02-02T03:14:16.334Z,60.12
2018-02-02T03:15:25.294Z,60.6
2018-02-02T03:16:34.516Z,60.41
2018-02-02T03:17:43.207Z,60.41
2018-02-02T03:18:52.164Z,60.5
2018-02-02T03:20:01.664Z,60.7
2018-02-02T03:21:10.356Z,60.6
2018-02-02T03:22:19.592Z,60.12
2018-02-02T03:23:28.816Z,60.6
2018-02-02T03:24:37.773Z,60.41
2018-02-02T03:25:46.465Z,60.31
2018-02-02T03:26:55.160Z,60.12
2018-02-02T03:28:04.388Z,60.03
2018-02-02T03:29:13.085Z,59.74
2018-02-02T03:30:22.312Z,59.83
2018-02-02T03:31:31.817Z,60.22
2018-02-02T03:32:41.037Z,60.22
2018-02-02T03:33:50.526Z,60.12
2018-02-02T03:34:59.485Z,60.12
2018-02-02T03:36:08.179Z,60.31
2018-02-02T03:37:16.871Z,60.12
2018-02-02T03:38:26.093Z,60.03
2018-02-02T03:39:34.784Z,60.22
2018-02-02T03:40:43.480Z,60.31
2018-02-02T03:41:52.439Z,60.22
2018-02-02T03:43:01.132Z,60.31
2018-02-02T03:44:10.626Z,60.12
2018-02-02T03:45:19.594Z,60.22
2018-02-02T03:46:28.822Z,60.22
2018-02-02T03:47:37.778Z,60.03
2018-02-02T03:48:46.470Z,60.31
2018-02-02T03:49:55.161Z,60.22
2018-02-02T03:51:04.120Z,60.31
2018-02-02T03:52:13.077Z,60.5
2018-02-02T03:53:22.039Z,60.31
2018-02-02T03:54:30.995Z,60.5
2018-02-02T03:55:40.484Z,60.12
2018-02-02T03:56:49.444Z,60.22
2018-02-02T03:57:58.406Z,60.41
2018-02-02T03:59:07.372Z,60.41
2018-02-02T04:00:16.330Z,60.41
2018-02-02T04:01:25.027Z,60.41
2018-02-02T04:02:33.714Z,60.22
2018-02-02T04:03:42.944Z,60.31
2018-02-02T04:04:51.906Z,60.22
2018-02-02T04:06:00.598Z,60.22
2018-02-02T04:07:09.825Z,60.22
2018-02-02T04:08:18.517Z,60.6
2018-02-02T04:09:27.207Z,60.5
2018-02-02T04:10:36.692Z,60.41
2018-02-02T04:11:45.651Z,60.5
2018-02-02T04:12:55.147Z,60.5
2018-02-02T04:14:04.106Z,60.03
2018-02-02T04:15:13.068Z,60.22
2018-02-02T04:16:22.290Z,60.31
2018-02-02T04:17:31.510Z,60.31
2018-02-02T04:18:40.201Z,60.31
2018-02-02T04:19:49.161Z,60.03
2018-02-02T04:20:58.658Z,60.03
2018-02-02T04:22:07.619Z,60.03
2018-02-02T04:23:16.845Z,60.31
2018-02-02T04:24:25.540Z,60.03
2018-02-02T04:25:35.029Z,60.31
2018-02-02T04:26:44.298Z,60.22
2018-02-02T04:27:53.255Z,59.83
2018-02-02T04:29:02.218Z,60.12
2018-02-02T04:30:10.910Z,60.12
2018-02-02T04:31:19.874Z,60.22
2018-02-02T04:32:28.837Z,60.03
2018-02-02T04:33:37.796Z,60.12
2018-02-02T04:34:46.763Z,60.22
2018-02-02T04:35:55.993Z,60.22
2018-02-02T04:37:04.951Z,60.22
2018-02-02T04:38:13.647Z,60.12
2018-02-02T04:39:22.610Z,60.12
2018-02-02T04:40:31.832Z,60.12
2018-02-02T04:41:40.525Z,60.12
2018-02-02T04:42:49.490Z,60.03
2018-02-02T04:43:58.183Z,60.22
2018-02-02T04:45:07.140Z,60.12
2018-02-02T04:46:16.101Z,60.12
2018-02-02T04:47:25.059Z,60.22
2018-02-02T04:48:33.754Z,60.12
2018-02-02T04:49:42.713Z,60.12
2018-02-02T04:50:51.948Z,60.12
2018-02-02T04:52:00.907Z,60.03
2018-02-02T04:53:09.603Z,60.12
2018-02-02T04:54:18.828Z,60.22
2018-02-02T04:55:27.786Z,60.03
2018-02-02T04:56:36.478Z,60.12
2018-02-02T04:57:45.972Z,60.22
2018-02-02T04:58:54.932Z,60.03
2018-02-02T05:00:03.897Z,60.12
2018-02-02T05:01:12.857Z,59.83
2018-02-02T05:02:21.816Z,59.93
2018-02-02T05:03:30.507Z,59.83
2018-02-02T05:04:39.997Z,59.83
2018-02-02T05:05:48.688Z,59.83
2018-02-02T05:06:57.381Z,59.8
2018-02-02T05:08:06.348Z,59.74
2018-02-02T05:09:15.039Z,59.83
2018-02-02T05:10:24.002Z,59.64
2018-02-02T05:11:32.700Z,59.8
2018-02-02T05:12:41.920Z,59.64
2018-02-02T05:13:50.882Z,59.83
2018-02-02T05:14:59.843Z,59.71
2018-02-02T05:16:08.807Z,59.64
2018-02-02T05:17:17.497Z,59.83
2018-02-02T05:18:26.228Z,59.61
2018-02-02T05:19:34.886Z,59.71
2018-02-02T05:20:43.849Z,59.74
2018-02-02T05:21:52.542Z,59.61
2018-02-02T05:23:02.032Z,60.03
2018-02-02T05:24:11.259Z,59.83
2018-02-02T05:25:20.747Z,59.93
2018-02-02T05:26:29.714Z,59.71
2018-02-02T05:27:38.677Z,59.83
2018-02-02T05:28:47.631Z,59.83
2018-02-02T05:29:56.588Z,59.83
2018-02-02T05:31:05.862Z,60.03
2018-02-02T05:32:15.346Z,59.74
2018-02-02T05:33:24.303Z,59.74
2018-02-02T05:34:33.258Z,59.64
2018-02-02T05:35:42.219Z,59.71
2018-02-02T05:36:51.188Z,59.74
2018-02-02T05:37:59.882Z,59.64
2018-02-02T05:39:08.573Z,59.55
2018-02-02T05:40:17.805Z,59.55
2018-02-02T05:41:26.766Z,59.83
2018-02-02T05:42:35.993Z,59.83
2018-02-02T05:43:44.688Z,59.55
2018-02-02T05:44:53.693Z,59.83
2018-02-02T05:46:02.600Z,59.83
2018-02-02T05:47:11.293Z,59.93
2018-02-02T05:48:20.251Z,59.93
2018-02-02T05:49:28.943Z,59.83
2018-02-02T05:50:38.166Z,59.83
2018-02-02T05:51:47.401Z,59.83
2018-02-02T05:52:56.636Z,59.93
2018-02-02T05:54:05.598Z,59.93
2018-02-02T05:55:14.820Z,59.83
2018-02-02T05:56:23.778Z,59.83
2018-02-02T05:57:33.057Z,59.83
2018-02-02T05:58:42.287Z,59.83
2018-02-02T05:59:51.513Z,59.83
2018-02-02T06:01:00.827Z,59.83
2018-02-02T06:02:09.738Z,59.83
2018-02-02T06:03:18.964Z,59.64
2018-02-02T06:04:27.927Z,59.93
2018-02-02T06:05:36.623Z,59.06
2018-02-02T06:06:45.583Z,59.83
2018-02-02T06:07:54.554Z,59.83
2018-02-02T06:09:03.245Z,59.83
2018-02-02T06:10:12.205Z,59.83
2018-02-02T06:11:21.168Z,59.83
2018-02-02T06:12:29.862Z,59.83
2018-02-02T06:13:38.825Z,59.83
2018-02-02T06:14:48.583Z,59.83
2018-02-02T06:15:57.811Z,59.93
2018-02-02T06:17:06.505Z,59.83
2018-02-02T06:18:15.198Z,59.83
2018-02-02T06:19:24.428Z,59.83
2018-02-02T06:20:33.123Z,59.83
2018-02-02T06:21:42.350Z,59.83
2018-02-02T06:22:51.572Z,59.93
2018-02-02T06:24:00.271Z,59.83
2018-02-02T06:25:09.226Z,59.93
2018-02-02T06:26:18.463Z,59.93
2018-02-02T06:27:27.430Z,59.93
2018-02-02T06:28:36.391Z,59.83
2018-02-02T06:29:46.410Z,59.83
2018-02-02T06:30:56.169Z,59.93
2018-02-02T06:32:05.669Z,59.83
2018-02-02T06:33:14.632Z,59.83
2018-02-02T06:34:23.852Z,59.83
2018-02-02T06:35:32.809Z,59.83
2018-02-02T06:36:41.499Z,59.83
2018-02-02T06:37:50.455Z,59.83
2018-02-02T06:38:59.678Z,59.83
2018-02-02T06:40:09.231Z,59.83
2018-02-02T06:41:18.455Z,59.83
2018-02-02T06:42:27.147Z,59.74
2018-02-02T06:43:35.842Z,59.83
2018-02-02T06:44:45.336Z,59.64
2018-02-02T06:45:54.556Z,59.74
2018-02-02T06:47:03.519Z,59.74
2018-02-02T06:48:12.744Z,59.64
2018-02-02T06:49:21.704Z,59.83
2018-02-02T06:50:30.932Z,59.74
2018-02-02T06:51:39.890Z,59.83
2018-02-02T06:52:48.849Z,59.26
2018-02-02T06:53:57.809Z,59.16
2018-02-02T06:55:07.301Z,59.16
2018-02-02T06:56:16.267Z,59.06
2018-02-02T06:57:25.230Z,60.03
2018-02-02T06:58:34.463Z,59.06
2018-02-02T06:59:43.688Z,59.16
2018-02-02T07:00:52.917Z,59.45
2018-02-02T07:02:01.602Z,59.36
2018-02-02T07:03:10.560Z,58.97
2018-02-02T07:04:20.054Z,59.26
2018-02-02T07:05:29.278Z,59.16
2018-02-02T07:06:37.977Z,59.45
2018-02-02T07:07:46.668Z,59.06
2018-02-02T07:08:55.899Z,59.16
2018-02-02T07:10:05.392Z,59.55
2018-02-02T07:11:14.674Z,59.06
2018-02-02T07:12:23.637Z,59.16
2018-02-02T07:13:33.130Z,59.16
2018-02-02T07:14:42.089Z,59.06
2018-02-02T07:15:51.313Z,59.26
2018-02-02T07:17:00.276Z,59.36
2018-02-02T07:18:08.975Z,59.16
2018-02-02T07:19:17.931Z,59.26
2018-02-02T07:20:26.891Z,59.36
2018-02-02T07:21:35.854Z,59.36
2018-02-02T07:22:45.080Z,59.36
2018-02-02T07:23:53.773Z,59.16
2018-02-02T07:25:02.730Z,59.45
2018-02-02T07:26:11.421Z,59.83
2018-02-02T07:27:20.118Z,59.06
2018-02-02T07:28:28.811Z,59.45
2018-02-02T07:29:38.036Z,59.45
2018-02-02T07:30:47.259Z,59.06
2018-02-02T07:31:56.495Z,59.36
2018-02-02T07:33:05.994Z,59.36
2018-02-02T07:34:15.483Z,59.45
2018-02-02T07:35:24.707Z,59.55
2018-02-02T07:36:33.935Z,59.45
2018-02-02T07:37:43.159Z,59.06
2018-02-02T07:38:52.119Z,59.06
2018-02-02T07:40:01.610Z,59.45
2018-02-02T07:41:10.915Z,59.36
2018-02-02T07:42:19.605Z,59.06
2018-02-02T07:43:28.298Z,59.55
2018-02-02T07:44:37.260Z,59.55
2018-02-02T07:45:46.223Z,59.83
2018-02-02T07:46:54.916Z,60.12
2018-02-02T07:48:03.878Z,59.06
2018-02-02T07:49:13.117Z,59.83
2018-02-02T07:50:21.909Z,59.93
2018-02-02T07:51:31.019Z,59.83
2018-02-02T07:52:39.716Z,59.83
2018-02-02T07:53:48.415Z,59.83
2018-02-02T07:54:57.110Z,59.64
2018-02-02T07:56:06.073Z,59.26
2018-02-02T07:57:15.420Z,59.83
2018-02-02T07:58:24.503Z,60.03
2018-02-02T07:59:33.198Z,60.12
2018-02-02T08:00:42.163Z,60.12
2018-02-02T08:01:51.123Z,59.06
2018-02-02T08:02:59.822Z,59.06
2018-02-02T08:04:08.786Z,59.93
2018-02-02T08:05:17.484Z,59.06
2018-02-02T08:06:26.181Z,59.16
2018-02-02T08:07:35.143Z,59.83
2018-02-02T08:08:44.638Z,59.36
2018-02-02T08:09:54.125Z,59.16
2018-02-02T08:11:02.821Z,59.16
2018-02-02T08:12:11.517Z,59.16
2018-02-02T08:13:20.479Z,59.26
2018-02-02T08:14:29.176Z,59.16
2018-02-02T08:15:37.871Z,59.45
2018-02-02T08:16:46.832Z,59.06
2018-02-02T08:17:56.602Z,59.06
2018-02-02T08:19:05.559Z,59.06
2018-02-02T08:20:14.262Z,59.16
2018-02-02T08:21:23.225Z,59.55
2018-02-02T08:22:32.454Z,59.26
2018-02-02T08:23:41.412Z,59.26
2018-02-02T08:24:50.641Z,59.36
2018-02-02T08:25:59.602Z,59.26
2018-02-02T08:27:08.828Z,59.26
2018-02-02T08:28:18.101Z,59.26
2018-02-02T08:29:27.058Z,59.26
2018-02-02T08:30:35.753Z,59.16
2018-02-02T08:31:44.716Z,59.36
2018-02-02T08:32:53.410Z,59.06
2018-02-02T08:34:02.639Z,59.16
2018-02-02T08:35:11.917Z,59.93
2018-02-02T08:36:21.148Z,60.03
2018-02-02T08:37:30.107Z,59.83
2018-02-02T08:38:39.333Z,60.31
2018-02-02T08:39:48.294Z,60.41
2018-02-02T08:40:56.986Z,60.31
2018-02-02T08:42:06.215Z,60.41
2018-02-02T08:43:14.913Z,60.79
2018-02-02T08:44:24.669Z,60.99
2018-02-02T08:45:33.630Z,60.89
2018-02-02T08:46:42.590Z,60.41
2018-02-02T08:47:51.551Z,60.41
2018-02-02T08:49:00.514Z,60.89
2018-02-02T08:50:09.210Z,61.18
2018-02-02T08:51:17.903Z,60.89
2018-02-02T08:52:26.594Z,60.89
2018-02-02T08:53:36.095Z,60.89
2018-02-02T08:54:45.323Z,61.18
2018-02-02T08:55:54.019Z,61.08
2018-02-02T08:57:02.716Z,60.99
2018-02-02T08:58:12.226Z,60.89
2018-02-02T08:59:21.192Z,61.08
2018-02-02T09:00:30.413Z,61.27
2018-02-02T09:01:39.376Z,60.99
2018-02-02T09:02:48.648Z,60.99
2018-02-02T09:03:57.342Z,60.79
2018-02-02T09:05:06.037Z,61.37
2018-02-02T09:06:14.996Z,61.27
2018-02-02T09:07:23.957Z,61.66
2018-02-02T09:08:33.184Z,61.56
2018-02-02T09:09:42.140Z,61.66
2018-02-02T09:10:51.096Z,61.56
2018-02-02T09:12:00.319Z,61.94
2018-02-02T09:13:09.283Z,61.94
2018-02-02T09:14:18.242Z,61.75
2018-02-02T09:15:27.207Z,61.94
2018-02-02T09:16:36.216Z,61.85
2018-02-02T09:17:45.441Z,61.94
2018-02-02T09:18:54.693Z,61.56
2018-02-02T09:20:03.567Z,61.56
2018-02-02T09:21:13.184Z,61.75
2018-02-02T09:22:23.380Z,62.04
2018-02-02T09:23:32.862Z,62.62
2018-02-02T09:24:42.044Z,61.75
2018-02-02T09:25:51.270Z,62.04
2018-02-02T09:27:00.235Z,61.46
2018-02-02T09:28:09.723Z,61.75
2018-02-02T09:29:18.951Z,60.7
2018-02-02T09:30:28.188Z,61.18
2018-02-02T09:31:37.143Z,61.27
2018-02-02T09:32:46.102Z,61.37
2018-02-02T09:33:55.391Z,61.08
2018-02-02T09:35:04.350Z,61.75
2018-02-02T09:36:13.578Z,61.56
2018-02-02T09:37:22.541Z,61.94
2018-02-02T09:38:31.497Z,61.75
2018-02-02T09:39:40.461Z,62.13
2018-02-02T09:40:49.420Z,61.75
2018-02-02T09:41:58.420Z,61.75
2018-02-02T09:43:07.353Z,61.94
2018-02-02T09:44:16.048Z,61.85
2018-02-02T09:45:24.744Z,61.94
2018-02-02T09:46:33.707Z,61.18
2018-02-02T09:47:42.933Z,60.99
2018-02-02T09:48:51.631Z,60.89
2018-02-02T09:50:00.327Z,60.31
2018-02-02T09:51:09.022Z,59.83
2018-02-02T09:52:18.253Z,59.45
2018-02-02T09:53:26.944Z,59.06
2018-02-02T09:54:35.905Z,58.3
2018-02-02T09:55:44.605Z,57.72
2018-02-02T09:56:53.836Z,58.11
2018-02-02T09:58:02.534Z,58.69
2018-02-02T09:59:11.761Z,58.84
2018-02-02T10:00:20.723Z,58.46
2018-02-02T10:01:29.948Z,58.56
2018-02-02T10:02:39.177Z,59.45
2018-02-02T10:03:47.871Z,59.36
2018-02-02T10:04:56.569Z,59.64
2018-02-02T10:06:05.533Z,59.16
2018-02-02T10:07:14.492Z,59.36
2018-02-02T10:08:23.184Z,59.83
2018-02-02T10:09:32.418Z,59.93
2018-02-02T10:10:41.914Z,59.74
2018-02-02T10:11:50.610Z,59.55
2018-02-02T10:12:59.601Z,59.83
2018-02-02T10:14:08.564Z,59.83
2018-02-02T10:15:17.256Z,59.74
2018-02-02T10:16:26.490Z,59.93
2018-02-02T10:17:35.449Z,60.03
2018-02-02T10:18:44.463Z,59.64
2018-02-02T10:19:53.957Z,60.31
2018-02-02T10:21:03.189Z,60.03
2018-02-02T10:22:12.151Z,59.93
2018-02-02T10:23:21.109Z,60.5
2018-02-02T10:24:29.837Z,60.5
2018-02-02T10:25:39.066Z,60.31
2018-02-02T10:26:47.760Z,60.12
2018-02-02T10:27:56.721Z,60.03
2018-02-02T10:29:06.217Z,60.03
2018-02-02T10:30:14.909Z,60.7
2018-02-02T10:31:24.134Z,60.41
2018-02-02T10:32:32.830Z,61.08
2018-02-02T10:33:41.543Z,60.7
2018-02-02T10:34:50.501Z,60.31
2018-02-02T10:35:59.194Z,60.7
2018-02-02T10:37:08.156Z,60.79
2018-02-02T10:38:17.651Z,60.99
2018-02-02T10:39:27.142Z,60.89
2018-02-02T10:40:36.370Z,60.31
2018-02-02T10:41:45.065Z,60.6
2018-02-02T10:42:54.559Z,60.41
2018-02-02T10:44:03.799Z,60.12
2018-02-02T10:45:13.031Z,60.22
2018-02-02T10:46:22.326Z,60.31
2018-02-02T10:47:31.285Z,60.5
2018-02-02T10:48:39.979Z,60.22
2018-02-02T10:49:48.974Z,59.93
2018-02-02T10:50:58.204Z,59.64
2018-02-02T10:52:07.162Z,59.74
2018-02-02T10:53:16.120Z,59.74
2018-02-02T10:54:25.080Z,59.83
2018-02-02T10:55:34.318Z,60.12
2018-02-02T10:56:43.279Z,59.93
2018-02-02T10:57:52.242Z,59.74
2018-02-02T10:59:00.937Z,59.93
2018-02-02T11:00:09.898Z,59.64
2018-02-02T11:01:19.389Z,60.22
2018-02-02T11:02:28.885Z,60.12
2018-02-02T11:03:37.846Z,60.15
2018-02-02T11:04:47.081Z,60.05
2018-02-02T11:05:56.040Z,60.44
2018-02-02T11:07:05.532Z,60.25
2018-02-02T11:08:15.028Z,60.44
2018-02-02T11:09:23.986Z,60.25
2018-02-02T11:10:32.951Z,60.25
2018-02-02T11:11:42.175Z,60.25
2018-02-02T11:12:51.131Z,60.25
2018-02-02T11:13:59.823Z,60.15
2018-02-02T11:15:08.780Z,60.15
2018-02-02T11:16:17.735Z,60.15
2018-02-02T11:17:26.962Z,60.25
2018-02-02T11:18:35.655Z,60.44
2018-02-02T11:19:44.613Z,60.15
2018-02-02T11:20:53.305Z,60.05
2018-02-02T11:22:02.797Z,60.25
2018-02-02T11:23:11.763Z,60.15
2018-02-02T11:24:20.459Z,60.25
2018-02-02T11:25:29.420Z,59.96
2018-02-02T11:26:38.382Z,60.25
2018-02-02T11:27:47.609Z,60.25
2018-02-02T11:28:56.567Z,60.25
2018-02-02T11:30:05.788Z,60.05
2018-02-02T11:31:14.481Z,60.25
2018-02-02T11:32:23.445Z,60.35
2018-02-02T11:33:32.669Z,60.25
2018-02-02T11:34:41.363Z,60.15
2018-02-02T11:35:50.328Z,60.15
2018-02-02T11:36:59.557Z,60.35
2018-02-02T11:38:08.523Z,60.15
2018-02-02T11:39:17.749Z,60.15
2018-02-02T11:40:26.711Z,60.35
2018-02-02T11:41:35.673Z,60.25
2018-02-02T11:42:44.364Z,60.35
2018-02-02T11:43:53.324Z,60.15
2018-02-02T11:45:02.286Z,60.05
2018-02-02T11:46:11.247Z,60.15
2018-02-02T11:47:19.946Z,60.25
2018-02-02T11:48:29.442Z,60.35
2018-02-02T11:49:38.140Z,59.96
2018-02-02T11:50:47.373Z,60.25
2018-02-02T11:51:56.603Z,60.35
2018-02-02T11:53:05.561Z,60.15
2018-02-02T11:54:14.792Z,60.25
2018-02-02T11:55:24.548Z,60.15
2018-02-02T11:56:34.035Z,60.15
2018-02-02T11:57:43.266Z,60.15
2018-02-02T11:58:52.223Z,60.15
2018-02-02T12:00:01.446Z,60.15
2018-02-02T12:01:10.413Z,60.15
2018-02-02T12:02:19.105Z,60.25
2018-02-02T12:03:28.067Z,60.15
2018-02-02T12:04:36.762Z,60.44
2018-02-02T12:05:45.452Z,60.44
2018-02-02T12:06:54.419Z,60.25
2018-02-02T12:08:03.381Z,60.53
2018-02-02T12:09:13.144Z,60.35
2018-02-02T12:10:22.104Z,60.05
2018-02-02T12:11:31.598Z,60.35
2018-02-02T12:12:40.561Z,60.15
2018-02-02T12:13:50.058Z,60.15
2018-02-02T12:14:58.751Z,60.15
2018-02-02T12:16:07.443Z,60.25
2018-02-02T12:17:16.402Z,60.25
2018-02-02T12:18:25.357Z,60.25
2018-02-02T12:19:34.316Z,60.28
2018-02-02T12:20:43.012Z,60.15
2018-02-02T12:21:52.263Z,60.15
2018-02-02T12:23:00.932Z,60.25
2018-02-02T12:24:09.890Z,60.25
2018-02-02T12:25:19.120Z,60.08
2018-02-02T12:26:27.814Z,60.28
2018-02-02T12:27:36.775Z,59.99
2018-02-02T12:28:45.735Z,60.08
2018-02-02T12:29:54.695Z,60.05
2018-02-02T12:31:03.921Z,60.38
2018-02-02T12:32:12.880Z,60.57
2018-02-02T12:33:21.571Z,59.89
2018-02-02T12:34:30.264Z,60.05
2018-02-02T12:35:39.491Z,59.99
2018-02-02T12:36:48.717Z,59.67
2018-02-02T12:37:57.676Z,58.81
2018-02-02T12:39:06.640Z,58.81
2018-02-02T12:40:15.598Z,59.09
2018-02-02T12:41:24.560Z,58.62
2018-02-02T12:42:33.842Z,59
2018-02-02T12:43:42.804Z,58.71
2018-02-02T12:44:51.762Z,59.09
2018-02-02T12:46:00.451Z,58.81
2018-02-02T12:47:09.725Z,58.71
2018-02-02T12:48:18.955Z,58.71
2018-02-02T12:49:27.911Z,58.91
2018-02-02T12:50:37.134Z,59
2018-02-02T12:51:46.093Z,59.09
2018-02-02T12:52:56.708Z,59.48
2018-02-02T12:54:05.671Z,59.38
2018-02-02T12:55:14.369Z,59.38
2018-02-02T12:56:23.328Z,59.86
2018-02-02T12:57:32.823Z,59.58
2018-02-02T12:58:42.052Z,59.86
2018-02-02T12:59:51.010Z,59.86
2018-02-02T13:01:00.520Z,60.05
2018-02-02T13:02:09.747Z,59.67
2018-02-02T13:03:18.441Z,59.67
2018-02-02T13:04:27.406Z,59.77
2018-02-02T13:05:36.101Z,59.89
2018-02-02T13:06:44.798Z,60.05
2018-02-02T13:07:53.762Z,59.89
2018-02-02T13:09:02.455Z,59.7
2018-02-02T13:10:11.950Z,59.7
2018-02-02T13:11:21.178Z,59.96
2018-02-02T13:12:30.404Z,59.86
2018-02-02T13:13:39.629Z,59.77
2018-02-02T13:14:49.121Z,59.99
2018-02-02T13:15:57.813Z,59.77
2018-02-02T13:17:06.507Z,59.96
2018-02-02T13:18:15.468Z,60.28
2018-02-02T13:19:24.425Z,59.67
2018-02-02T13:20:33.382Z,59.77
2018-02-02T13:21:42.341Z,59.77
2018-02-02T13:22:51.049Z,59.77
2018-02-02T13:24:00.012Z,59.77
2018-02-02T13:25:08.703Z,59.67
2018-02-02T13:26:18.201Z,59.67
2018-02-02T13:27:27.429Z,59.96
2018-02-02T13:28:36.660Z,59.86
2018-02-02T13:29:45.888Z,59.58
2018-02-02T13:30:55.118Z,59.96
2018-02-02T13:32:03.812Z,59.86
2018-02-02T13:33:12.509Z,59.77
2018-02-02T13:34:21.532Z,59.86
2018-02-02T13:35:30.557Z,59.58
2018-02-02T13:36:39.851Z,59.86
2018-02-02T13:37:48.563Z,60.25
2018-02-02T13:38:57.535Z,59.86
2018-02-02T13:40:06.777Z,59.77
2018-02-02T13:41:15.749Z,59.67
2018-02-02T13:42:24.729Z,59.77
2018-02-02T13:43:33.477Z,59.77
2018-02-02T13:44:43.008Z,59.67
2018-02-02T13:45:51.990Z,59.58
2018-02-02T13:47:01.266Z,59.86
2018-02-02T13:48:10.774Z,59.58
2018-02-02T13:49:19.480Z,59.77
2018-02-02T13:50:28.986Z,59.96
2018-02-02T13:51:38.222Z,59.96
2018-02-02T13:52:47.460Z,59.96
2018-02-02T13:53:56.158Z,60.25
2018-02-02T13:55:04.879Z,60.25
2018-02-02T13:56:14.115Z,59.86
2018-02-02T13:57:23.084Z,59.67
2018-02-02T13:58:31.780Z,59.77
2018-02-02T13:59:40.764Z,59.67
2018-02-02T14:00:50.003Z,59.86
2018-02-02T14:01:58.715Z,59.86
2018-02-02T14:03:07.696Z,59.86
2018-02-02T14:04:16.659Z,59.86
2018-02-02T14:05:25.908Z,60.15
2018-02-02T14:06:34.886Z,59.67
2018-02-02T14:07:43.855Z,60.25
2018-02-02T14:08:52.826Z,60.25
2018-02-02T14:10:02.058Z,60.63
2018-02-02T14:11:11.829Z,60.15
2018-02-02T14:12:20.568Z,59.86
2018-02-02T14:13:29.267Z,59.67
2018-02-02T14:14:38.228Z,59.58
2018-02-02T14:15:47.457Z,59.67
2018-02-02T14:16:56.156Z,59.48
2018-02-02T14:18:05.649Z,59.86
2018-02-02T14:19:14.607Z,59.77
2018-02-02T14:20:23.302Z,60.05
2018-02-02T14:21:31.994Z,60.25
2018-02-02T14:22:40.687Z,60.44
2018-02-02T14:23:49.913Z,59.86
2018-02-02T14:24:58.602Z,60.25
2018-02-02T14:26:07.295Z,60.35
2018-02-02T14:27:16.521Z,60.63
2018-02-02T14:28:25.484Z,60.35
2018-02-02T14:29:34.178Z,60.53
2018-02-02T14:30:42.872Z,60.25
2018-02-02T14:31:52.384Z,60.53
2018-02-02T14:33:01.343Z,60.72
2018-02-02T14:34:10.040Z,61.11
2018-02-02T14:35:19.540Z,60.63
2018-02-02T14:36:28.233Z,60.44
2018-02-02T14:37:37.195Z,60.44
2018-02-02T14:38:46.423Z,60.05
2018-02-02T14:39:55.114Z,60.05
2018-02-02T14:41:03.807Z,60.44
2018-02-02T14:42:12.504Z,59.86
2018-02-02T14:43:21.468Z,60.15
2018-02-02T14:44:30.479Z,60.35
2018-02-02T14:45:39.449Z,60.35
2018-02-02T14:46:48.674Z,60.25
2018-02-02T14:47:57.632Z,60.25
2018-02-02T14:49:06.590Z,60.35
2018-02-02T14:50:15.544Z,60.25
2018-02-02T14:51:24.502Z,60.25
2018-02-02T14:52:33.729Z,60.53